createdAt,value
2023-04-16T00:01:14.699Z,102169.34
2023-04-16T00:03:41.355Z,102170.19
2023-04-16T00:06:08.037Z,102170.84
2023-04-16T00:08:35.717Z,102163.94
2023-04-16T00:11:02.347Z,102161.06
2023-04-16T00:13:28.811Z,102171.84
2023-04-16T00:15:55.276Z,102165.81
2023-04-16T00:18:25.416Z,102166.84
2023-04-16T00:20:52.015Z,102174.72
2023-04-16T00:23:19.959Z,102175.56
2023-04-16T00:25:46.538Z,102168.13
2023-04-16T00:28:13.061Z,102173.16
2023-04-16T00:30:39.916Z,102165.91
2023-04-16T00:33:06.633Z,102164.59
2023-04-16T00:35:33.183Z,102171.84
2023-04-16T00:37:59.590Z,102167.31
2023-04-16T00:40:29.842Z,102166.47
2023-04-16T00:42:56.606Z,102176.22
2023-04-16T00:45:23.339Z,102173.53
2023-04-16T00:47:49.968Z,102173.16
2023-04-16T00:50:17.694Z,102171.50
2023-04-16T00:52:47.289Z,102172.50
2023-04-16T00:55:15.096Z,102167.59
2023-04-16T00:57:41.726Z,102174.84
2023-04-16T01:00:09.852Z,102169.44
2023-04-16T01:02:36.808Z,102168.63
2023-04-16T01:05:04.404Z,102167.59
2023-04-16T01:07:31.962Z,102164.06
2023-04-16T01:09:58.494Z,102169.28
2023-04-16T01:12:24.966Z,102171.31
2023-04-16T01:14:52.430Z,102174.00
2023-04-16T01:17:18.818Z,102173.16
2023-04-16T01:19:45.678Z,102171.50
2023-04-16T01:22:12.217Z,102173.53
2023-04-16T01:24:39.489Z,102168.81
2023-04-16T01:27:06.266Z,102173.53
2023-04-16T01:29:32.745Z,102173.53
2023-04-16T01:32:00.584Z,102168.50
2023-04-16T01:34:31.388Z,102177.25
2023-04-16T01:36:58.284Z,102179.09
2023-04-16T01:39:24.726Z,102175.75
2023-04-16T01:41:51.218Z,102177.25
2023-04-16T01:44:17.672Z,102176.59
2023-04-16T01:46:44.998Z,102181.63
2023-04-16T01:49:11.725Z,102183.09
2023-04-16T01:51:38.412Z,102188.03
2023-04-16T01:54:04.851Z,102184.31
2023-04-16T01:56:31.293Z,102178.91
2023-04-16T01:58:57.711Z,102187.66
2023-04-16T02:01:27.328Z,102186.47
2023-04-16T02:03:55.142Z,102186.47
2023-04-16T02:06:21.652Z,102183.59
2023-04-16T02:08:48.366Z,102181.06
2023-04-16T02:11:15.512Z,102184.44
2023-04-16T02:13:42.815Z,102186.47
2023-04-16T02:16:09.290Z,102182.94
2023-04-16T02:18:42.967Z,102182.75
2023-04-16T02:21:10.012Z,102181.72
2023-04-16T02:23:40.897Z,102186.78
2023-04-16T02:26:07.298Z,102180.53
2023-04-16T02:28:33.847Z,102174.47
2023-04-16T02:31:00.510Z,102176.16
2023-04-16T02:33:31.863Z,102170.44
2023-04-16T02:36:01.639Z,102176.47
2023-04-16T02:38:28.328Z,102172.94
2023-04-16T02:40:54.834Z,102177.50
2023-04-16T02:43:21.239Z,102177.13
2023-04-16T02:45:47.665Z,102183.19
2023-04-16T02:48:14.134Z,102177.97
2023-04-16T02:50:40.674Z,102178.81
2023-04-16T02:53:07.780Z,102173.03
2023-04-16T02:55:34.215Z,102180.94
2023-04-16T02:58:00.855Z,102183.84
2023-04-16T03:00:27.495Z,102179.28
2023-04-16T03:02:54.137Z,102187.19
2023-04-16T03:05:20.858Z,102187.84
2023-04-16T03:07:47.365Z,102186.34
2023-04-16T03:10:15.067Z,102188.84
2023-04-16T03:12:41.487Z,102189.69
2023-04-16T03:15:08.365Z,102189.50
2023-04-16T03:17:34.854Z,102195.09
2023-04-16T03:20:01.334Z,102196.28
2023-04-16T03:22:27.801Z,102202.53
2023-04-16T03:24:54.352Z,102202.72
2023-04-16T03:27:20.773Z,102202.06
2023-04-16T03:29:47.813Z,102203.72
2023-04-16T03:32:14.286Z,102211.16
2023-04-16T03:34:41.189Z,102216.56
2023-04-16T03:37:08.911Z,102213.19
2023-04-16T03:39:35.490Z,102211.81
2023-04-16T03:42:02.414Z,102214.16
2023-04-16T03:44:29.538Z,102202.72
2023-04-16T03:46:56.105Z,102212.84
2023-04-16T03:49:22.796Z,102212.84
2023-04-16T03:51:49.400Z,102216.38
2023-04-16T03:54:15.993Z,102212.84
2023-04-16T03:56:46.908Z,102205.78
2023-04-16T03:59:13.299Z,102209.13
2023-04-16T04:01:39.798Z,102210.78
2023-04-16T04:04:06.829Z,102218.69
2023-04-16T04:06:33.551Z,102208.28
2023-04-16T04:08:59.979Z,102214.50
2023-04-16T04:11:26.676Z,102205.59
2023-04-16T04:13:53.994Z,102212.84
2023-04-16T04:16:20.556Z,102216.38
2023-04-16T04:18:47.045Z,102218.41
2023-04-16T04:21:13.494Z,102212.19
2023-04-16T04:23:41.501Z,102222.97
2023-04-16T04:26:08.686Z,102225.66
2023-04-16T04:28:35.910Z,102230.03
2023-04-16T04:31:02.434Z,102225.84
2023-04-16T04:33:30.509Z,102229.72
2023-04-16T04:35:57.127Z,102236.81
2023-04-16T04:38:25.462Z,102237.47
2023-04-16T04:40:53.065Z,102233.09
2023-04-16T04:43:20.981Z,102232.06
2023-04-16T04:45:48.998Z,102247.22
2023-04-16T04:48:16.129Z,102246.56
2023-04-16T04:50:42.916Z,102246.38
2023-04-16T04:53:14.641Z,102245.91
2023-04-16T04:55:41.483Z,102243.88
2023-04-16T04:58:08.978Z,102234.75
2023-04-16T05:00:37.038Z,102254.66
2023-04-16T05:03:06.325Z,102252.63
2023-04-16T05:05:32.826Z,102244.53
2023-04-16T05:07:59.277Z,102251.78
2023-04-16T05:10:26.864Z,102252.63
2023-04-16T05:12:53.407Z,102251.59
2023-04-16T05:15:19.935Z,102248.06
2023-04-16T05:17:46.328Z,102251.59
2023-04-16T05:20:12.801Z,102252.25
2023-04-16T05:22:39.269Z,102250.56
2023-04-16T05:25:05.985Z,102245.19
2023-04-16T05:27:32.440Z,102252.91
2023-04-16T05:29:58.848Z,102249.56
2023-04-16T05:32:27.061Z,102252.25
2023-04-16T05:34:53.849Z,102256.44
2023-04-16T05:37:20.449Z,102264.34
2023-04-16T05:39:47.496Z,102258.13
2023-04-16T05:42:13.979Z,102264.34
2023-04-16T05:44:40.752Z,102261.47
2023-04-16T05:47:09.312Z,102270.06
2023-04-16T05:49:37.265Z,102266.88
2023-04-16T05:52:05.187Z,102275.97
2023-04-16T05:54:31.637Z,102268.41
2023-04-16T05:56:58.086Z,102284.22
2023-04-16T05:59:24.553Z,102271.56
2023-04-16T06:01:51.085Z,102280.69
2023-04-16T06:04:17.731Z,102278.81
2023-04-16T06:06:44.279Z,102281.50
2023-04-16T06:09:11.213Z,102284.88
2023-04-16T06:11:37.986Z,102290.25
2023-04-16T06:14:04.425Z,102288.22
2023-04-16T06:16:31.008Z,102286.19
2023-04-16T06:18:57.434Z,102292.06
2023-04-16T06:21:23.935Z,102291.88
2023-04-16T06:23:50.400Z,102293.72
2023-04-16T06:26:16.862Z,102294.94
2023-04-16T06:28:43.303Z,102297.97
2023-04-16T06:31:09.821Z,102300.94
2023-04-16T06:33:36.377Z,102304.31
2023-04-16T06:36:02.894Z,102303.09
2023-04-16T06:38:29.360Z,102305.97
2023-04-16T06:40:56.446Z,102305.63
2023-04-16T06:43:23.251Z,102310.69
2023-04-16T06:45:49.991Z,102308.97
2023-04-16T06:48:16.505Z,102314.22
2023-04-16T06:50:42.978Z,102320.44
2023-04-16T06:53:09.489Z,102315.19
2023-04-16T06:55:36.152Z,102319.44
2023-04-16T06:58:02.522Z,102318.09
2023-04-16T07:00:28.939Z,102322.47
2023-04-16T07:02:57.820Z,102319.75
2023-04-16T07:05:25.214Z,102324.81
2023-04-16T07:07:51.667Z,102328.19
2023-04-16T07:10:18.279Z,102332.84
2023-04-16T07:12:44.853Z,102334.53
2023-04-16T07:15:14.337Z,102332.50
2023-04-16T07:17:40.861Z,102340.41
2023-04-16T07:20:08.060Z,102337.91
2023-04-16T07:22:34.618Z,102344.97
2023-04-16T07:25:01.126Z,102346.34
2023-04-16T07:27:27.575Z,102352.25
2023-04-16T07:29:54.785Z,102356.47
2023-04-16T07:32:22.598Z,102356.28
2023-04-16T07:34:49.145Z,102352.75
2023-04-16T07:37:15.601Z,102354.25
2023-04-16T07:39:42.055Z,102355.06
2023-04-16T07:42:08.547Z,102357.13
2023-04-16T07:44:35.096Z,102362.16
2023-04-16T07:47:03.430Z,102370.91
2023-04-16T07:49:31.533Z,102367.56
2023-04-16T07:51:57.961Z,102367.41
2023-04-16T07:54:24.398Z,102369.78
2023-04-16T07:56:50.898Z,102366.56
2023-04-16T07:59:22.963Z,102378.34
2023-04-16T08:01:50.416Z,102378.16
2023-04-16T08:04:23.018Z,102383.84
2023-04-16T08:06:51.273Z,102384.88
2023-04-16T08:09:19.461Z,102386.06
2023-04-16T08:11:46.174Z,102390.81
2023-04-16T08:14:12.631Z,102389.75
2023-04-16T08:16:40.440Z,102398.16
2023-04-16T08:19:06.888Z,102396.16
2023-04-16T08:21:33.783Z,102403.19
2023-04-16T08:24:00.350Z,102401.78
2023-04-16T08:26:27.091Z,102407.16
2023-04-16T08:28:53.535Z,102408.81
2023-04-16T08:31:20.039Z,102411.63
2023-04-16T08:33:46.536Z,102412.66
2023-04-16T08:36:13.134Z,102411.28
2023-04-16T08:38:39.539Z,102409.78
2023-04-16T08:41:09.287Z,102414.09
2023-04-16T08:43:38.162Z,102416.16
2023-04-16T08:46:05.765Z,102421.19
2023-04-16T08:48:34.215Z,102416.72
2023-04-16T08:51:02.081Z,102421.09
2023-04-16T08:53:52.115Z,102424.53
2023-04-16T08:56:21.506Z,102424.91
2023-04-16T08:58:50.056Z,102424.91
2023-04-16T09:01:18.263Z,102426.22
2023-04-16T09:03:47.560Z,102422.44
2023-04-16T09:06:16.255Z,102417.78
2023-04-16T09:08:48.857Z,102431.78
2023-04-16T09:11:18.051Z,102425.94
2023-04-16T09:13:46.105Z,102429.00
2023-04-16T09:16:13.631Z,102427.97
2023-04-16T09:18:40.579Z,102430.03
2023-04-16T09:21:09.614Z,102438.41
2023-04-16T09:23:38.552Z,102431.81
2023-04-16T09:26:05.950Z,102438.41
2023-04-16T09:28:43.083Z,102437.38
2023-04-16T09:31:13.506Z,102443.81
2023-04-16T09:33:40.178Z,102433.50
2023-04-16T09:36:07.512Z,102442.28
2023-04-16T09:38:48.393Z,102442.75
2023-04-16T09:41:16.542Z,102452.16
2023-04-16T09:44:00.481Z,102453.56
2023-04-16T09:46:32.142Z,102455.69
2023-04-16T09:48:58.630Z,102459.06
2023-04-16T09:51:26.540Z,102448.91
2023-04-16T09:53:55.956Z,102462.44
2023-04-16T09:56:26.126Z,102471.69
2023-04-16T09:58:58.065Z,102464.97
2023-04-16T10:01:25.361Z,102460.75
2023-04-16T10:03:54.675Z,102467.00
2023-04-16T10:06:23.069Z,102474.69
2023-04-16T10:08:51.321Z,102474.31
2023-04-16T10:11:19.504Z,102476.63
2023-04-16T10:13:46.525Z,102475.59
2023-04-16T10:16:13.310Z,102479.34
2023-04-16T10:18:41.833Z,102479.97
2023-04-16T10:21:11.522Z,102476.16
2023-04-16T10:23:42.169Z,102481.19
2023-04-16T10:26:08.752Z,102471.13
2023-04-16T10:28:35.700Z,102477.97
2023-04-16T10:31:04.185Z,102482.41
2023-04-16T10:33:33.382Z,102483.25
2023-04-16T10:36:14.269Z,102479.53
2023-04-16T10:38:50.953Z,102480.28
2023-04-16T10:41:17.449Z,102482.88
2023-04-16T10:43:45.671Z,102471.25
2023-04-16T10:46:24.865Z,102476.56
2023-04-16T10:48:54.073Z,102482.59
2023-04-16T10:51:26.210Z,102484.78
2023-04-16T10:53:54.450Z,102478.69
2023-04-16T10:56:27.713Z,102483.84
2023-04-16T10:58:56.087Z,102480.75
2023-04-16T11:01:33.960Z,102487.00
2023-04-16T11:04:21.548Z,102484.31
2023-04-16T11:07:19.062Z,102487.47
2023-04-16T11:09:50.199Z,102489.97
2023-04-16T11:12:27.227Z,102491.41
2023-04-16T11:14:57.982Z,102490.47
2023-04-16T11:17:32.606Z,102480.66
2023-04-16T11:19:59.247Z,102485.72
2023-04-16T11:22:25.814Z,102492.91
2023-04-16T11:24:56.888Z,102492.03
2023-04-16T11:27:24.581Z,102490.53
2023-04-16T11:30:02.467Z,102493.25
2023-04-16T11:32:34.632Z,102494.38
2023-04-16T11:35:13.096Z,102502.69
2023-04-16T11:37:39.607Z,102495.59
2023-04-16T11:40:08.083Z,102493.63
2023-04-16T11:42:37.177Z,102499.03
2023-04-16T11:45:04.744Z,102496.72
2023-04-16T11:47:31.974Z,102505.28
2023-04-16T11:50:16.397Z,102499.41
2023-04-16T11:52:42.907Z,102498.59
2023-04-16T11:55:09.451Z,102490.38
2023-04-16T11:57:35.991Z,102491.75
2023-04-16T12:00:05.460Z,102498.28
2023-04-16T12:02:41.990Z,102505.78
2023-04-16T12:05:28.657Z,102499.78
2023-04-16T12:07:55.882Z,102503.44
2023-04-16T12:10:22.390Z,102505.69
2023-04-16T12:12:49.004Z,102503.22
2023-04-16T12:15:15.738Z,102506.59
2023-04-16T12:17:42.309Z,102509.88
2023-04-16T12:20:11.096Z,102516.31
2023-04-16T12:22:39.846Z,102516.34
2023-04-16T12:25:17.154Z,102524.34
2023-04-16T12:27:50.689Z,102519.47
2023-04-16T12:30:22.419Z,102524.66
2023-04-16T12:32:50.786Z,102518.09
2023-04-16T12:35:53.624Z,102519.28
2023-04-16T12:38:22.792Z,102525.06
2023-04-16T12:40:50.712Z,102526.47
2023-04-16T12:43:17.822Z,102530.47
2023-04-16T12:45:44.291Z,102520.78
2023-04-16T12:48:10.957Z,102521.81
2023-04-16T12:50:39.470Z,102525.38
2023-04-16T12:53:05.890Z,102524.19
2023-04-16T12:55:32.280Z,102522.97
2023-04-16T12:57:58.670Z,102522.03
2023-04-16T13:00:25.314Z,102524.50
2023-04-16T13:02:51.940Z,102525.69
2023-04-16T13:05:19.225Z,102524.56
2023-04-16T13:07:46.018Z,102525.84
2023-04-16T13:10:13.101Z,102519.22
2023-04-16T13:12:39.707Z,102530.22
2023-04-16T13:15:06.701Z,102523.91
2023-04-16T13:17:33.156Z,102517.47
2023-04-16T13:19:59.515Z,102519.50
2023-04-16T13:22:26.020Z,102525.69
2023-04-16T13:24:52.405Z,102510.38
2023-04-16T13:27:18.926Z,102514.06
2023-04-16T13:29:46.068Z,102518.84
2023-04-16T13:32:13.921Z,102514.03
2023-04-16T13:34:40.556Z,102513.69
2023-04-16T13:37:07.065Z,102513.72
2023-04-16T13:39:33.646Z,102515.41
2023-04-16T13:42:00.293Z,102516.94
2023-04-16T13:44:26.768Z,102521.94
2023-04-16T13:46:53.232Z,102519.97
2023-04-16T13:49:19.795Z,102520.25
2023-04-16T13:51:46.175Z,102524.75
2023-04-16T13:54:12.989Z,102516.84
2023-04-16T13:56:39.842Z,102525.38
2023-04-16T13:59:06.614Z,102514.06
2023-04-16T14:01:33.065Z,102521.22
2023-04-16T14:04:05.914Z,102514.47
2023-04-16T14:06:33.121Z,102515.53
2023-04-16T14:08:59.552Z,102505.56
2023-04-16T14:11:26.145Z,102516.53
2023-04-16T14:13:52.654Z,102509.84
2023-04-16T14:16:19.276Z,102520.28
2023-04-16T14:18:45.760Z,102513.59
2023-04-16T14:21:13.256Z,102512.91
2023-04-16T14:23:39.669Z,102515.84
2023-04-16T14:26:06.161Z,102509.69
2023-04-16T14:28:32.809Z,102517.38
2023-04-16T14:30:59.185Z,102512.47
2023-04-16T14:33:25.706Z,102507.22
2023-04-16T14:35:52.276Z,102515.00
2023-04-16T14:38:18.773Z,102520.81
2023-04-16T14:40:45.217Z,102515.25
2023-04-16T14:43:11.710Z,102512.03
2023-04-16T14:45:38.307Z,102511.56
2023-04-16T14:48:05.452Z,102518.88
2023-04-16T14:50:33.582Z,102511.25
2023-04-16T14:52:59.954Z,102513.94
2023-04-16T14:55:26.520Z,102507.97
2023-04-16T14:57:52.889Z,102504.00
2023-04-16T15:00:20.230Z,102502.34
2023-04-16T15:02:48.178Z,102504.41
2023-04-16T15:05:14.874Z,102509.16
2023-04-16T15:07:41.310Z,102506.25
2023-04-16T15:10:09.184Z,102510.44
2023-04-16T15:12:35.559Z,102503.97
2023-04-16T15:15:02.164Z,102507.97
2023-04-16T15:17:28.688Z,102510.97
2023-04-16T15:19:55.106Z,102507.69
2023-04-16T15:22:21.499Z,102507.25
2023-04-16T15:24:48.003Z,102507.47
2023-04-16T15:27:14.676Z,102514.59
2023-04-16T15:29:41.134Z,102518.34
2023-04-16T15:32:07.529Z,102509.78
2023-04-16T15:34:34.040Z,102512.94
2023-04-16T15:37:00.592Z,102515.06
2023-04-16T15:39:27.133Z,102514.91
2023-04-16T15:42:01.517Z,102510.88
2023-04-16T15:44:30.211Z,102508.78
2023-04-16T15:46:56.603Z,102519.84
2023-04-16T15:49:24.671Z,102509.97
2023-04-16T15:51:51.868Z,102507.97
2023-04-16T15:54:18.518Z,102511.78
2023-04-16T15:56:46.475Z,102511.19
2023-04-16T15:59:13.337Z,102515.34
2023-04-16T16:01:39.848Z,102515.88
2023-04-16T16:04:09.290Z,102514.41
2023-04-16T16:06:37.817Z,102513.25
2023-04-16T16:09:04.881Z,102513.13
2023-04-16T16:11:32.550Z,102515.97
2023-04-16T16:14:01.135Z,102514.56
2023-04-16T16:16:28.394Z,102517.06
2023-04-16T16:18:55.246Z,102516.59
2023-04-16T16:21:22.032Z,102518.19
2023-04-16T16:23:48.456Z,102510.81
2023-04-16T16:26:14.870Z,102519.97
2023-04-16T16:28:43.739Z,102523.00
2023-04-16T16:31:12.100Z,102510.34
2023-04-16T16:33:40.293Z,102508.53
2023-04-16T16:36:10.893Z,102514.25
2023-04-16T16:38:38.063Z,102510.97
2023-04-16T16:41:04.445Z,102510.31
2023-04-16T16:43:31.026Z,102503.03
2023-04-16T16:45:57.459Z,102509.50
2023-04-16T16:48:23.853Z,102508.56
2023-04-16T16:50:50.520Z,102516.56
2023-04-16T16:53:17.005Z,102523.56
2023-04-16T16:55:43.388Z,102526.84
2023-04-16T16:58:09.820Z,102527.94
2023-04-16T17:00:37.014Z,102533.72
2023-04-16T17:03:03.661Z,102530.84
2023-04-16T17:05:30.290Z,102526.16
2023-04-16T17:07:56.706Z,102533.03
2023-04-16T17:10:23.200Z,102530.34
2023-04-16T17:12:50.966Z,102532.81
2023-04-16T17:15:19.242Z,102532.81
2023-04-16T17:17:47.087Z,102530.03
2023-04-16T17:20:14.210Z,102535.38
2023-04-16T17:22:40.643Z,102532.72
2023-04-16T17:25:08.101Z,102543.72
2023-04-16T17:27:34.854Z,102544.94
2023-04-16T17:30:01.977Z,102547.84
2023-04-16T17:32:29.921Z,102551.09
2023-04-16T17:34:56.510Z,102551.47
2023-04-16T17:37:23.484Z,102553.66
2023-04-16T17:39:50.397Z,102559.91
2023-04-16T17:42:17.123Z,102561.97
2023-04-16T17:44:43.590Z,102562.75
2023-04-16T17:47:10.682Z,102564.13
2023-04-16T17:49:37.098Z,102567.38
2023-04-16T17:52:03.666Z,102576.78
2023-04-16T17:54:30.371Z,102574.47
2023-04-16T17:56:57.524Z,102576.88
2023-04-16T17:59:24.074Z,102585.31
2023-04-16T18:01:50.580Z,102574.03
2023-04-16T18:04:17.660Z,102570.78
2023-04-16T18:06:44.559Z,102575.16
2023-04-16T18:09:11.959Z,102579.59
2023-04-16T18:11:38.385Z,102587.53
2023-04-16T18:14:04.888Z,102582.31
2023-04-16T18:16:31.401Z,102585.84
2023-04-16T18:18:57.990Z,102588.72
2023-04-16T18:21:24.512Z,102585.84
2023-04-16T18:23:50.944Z,102593.28
2023-04-16T18:26:20.395Z,102600.19
2023-04-16T18:28:48.628Z,102595.31
2023-04-16T18:31:15.351Z,102601.09
2023-04-16T18:33:55.555Z,102596.84
2023-04-16T18:36:23.685Z,102604.81
2023-04-16T18:39:01.008Z,102606.81
2023-04-16T18:41:28.516Z,102621.31
2023-04-16T18:43:54.990Z,102616.28
2023-04-16T18:46:21.448Z,102619.50
2023-04-16T18:48:47.867Z,102614.47
2023-04-16T18:51:16.084Z,102617.81
2023-04-16T18:53:44.170Z,102618.50
2023-04-16T18:56:11.056Z,102631.53
2023-04-16T18:58:37.891Z,102625.31
2023-04-16T19:01:04.866Z,102630.53
2023-04-16T19:03:32.099Z,102624.28
2023-04-16T19:05:58.790Z,102623.28
2023-04-16T19:08:25.301Z,102617.88
2023-04-16T19:10:51.832Z,102627.16
2023-04-16T19:13:18.408Z,102625.31
2023-04-16T19:15:44.879Z,102624.28
2023-04-16T19:18:11.302Z,102636.59
2023-04-16T19:20:37.876Z,102633.72
2023-04-16T19:23:05.585Z,102632.72
2023-04-16T19:25:32.480Z,102629.03
2023-04-16T19:27:59.247Z,102625.63
2023-04-16T19:30:26.412Z,102630.19
2023-04-16T19:32:55.152Z,102624.78
2023-04-16T19:35:22.177Z,102629.03
2023-04-16T19:37:48.738Z,102625.63
2023-04-16T19:40:15.340Z,102629.88
2023-04-16T19:42:41.840Z,102629.03
2023-04-16T19:45:08.554Z,102623.63
2023-04-16T19:47:35.037Z,102630.31
2023-04-16T19:50:01.927Z,102633.72
2023-04-16T19:52:28.324Z,102637.25
2023-04-16T19:54:54.700Z,102637.44
2023-04-16T19:57:21.073Z,102637.97
2023-04-16T19:59:47.456Z,102635.09
2023-04-16T20:02:13.887Z,102633.06
2023-04-16T20:04:40.398Z,102648.06
2023-04-16T20:07:06.835Z,102639.81
2023-04-16T20:09:33.279Z,102643.19
2023-04-16T20:12:00.601Z,102641.16
2023-04-16T20:14:27.082Z,102644.19
2023-04-16T20:16:53.562Z,102641.50
2023-04-16T20:19:20.001Z,102642.34
2023-04-16T20:21:46.520Z,102637.13
2023-04-16T20:24:15.248Z,102645.88
2023-04-16T20:26:41.805Z,102640.13
2023-04-16T20:29:10.186Z,102644.69
2023-04-16T20:31:36.874Z,102640.81
2023-04-16T20:34:03.870Z,102640.81
2023-04-16T20:36:30.336Z,102646.53
2023-04-16T20:38:56.746Z,102637.13
2023-04-16T20:41:25.041Z,102642.84
2023-04-16T20:43:52.612Z,102642.69
2023-04-16T20:46:23.860Z,102641.16
2023-04-16T20:48:51.646Z,102639.81
2023-04-16T20:51:18.073Z,102638.47
2023-04-16T20:53:44.485Z,102640.50
2023-04-16T20:56:14.614Z,102637.13
2023-04-16T20:58:41.888Z,102628.22
2023-04-16T21:01:08.459Z,102625.00
2023-04-16T21:03:35.215Z,102628.88
2023-04-16T21:06:03.409Z,102623.63
2023-04-16T21:08:29.895Z,102625.50
2023-04-16T21:10:56.300Z,102629.38
2023-04-16T21:13:22.799Z,102621.97
2023-04-16T21:15:49.215Z,102614.72
2023-04-16T21:18:16.929Z,102619.94
2023-04-16T21:20:43.330Z,102625.00
2023-04-16T21:23:09.699Z,102618.59
2023-04-16T21:25:36.161Z,102618.09
2023-04-16T21:28:02.533Z,102615.22
2023-04-16T21:30:29.005Z,102611.84
2023-04-16T21:32:55.467Z,102618.09
2023-04-16T21:35:21.881Z,102617.06
2023-04-16T21:37:48.310Z,102614.88
2023-04-16T21:40:14.751Z,102612.00
2023-04-16T21:42:42.167Z,102620.63
2023-04-16T21:45:10.134Z,102626.19
2023-04-16T21:47:37.131Z,102619.63
2023-04-16T21:50:04.078Z,102635.78
2023-04-16T21:52:32.691Z,102630.41
2023-04-16T21:54:59.910Z,102631.41
2023-04-16T21:57:26.341Z,102624.34
2023-04-16T21:59:52.824Z,102629.03
2023-04-16T22:02:19.347Z,102630.88
2023-04-16T22:04:45.862Z,102627.03
2023-04-16T22:07:12.286Z,102625.84
2023-04-16T22:09:39.001Z,102626.16
2023-04-16T22:12:11.536Z,102623.97
2023-04-16T22:14:44.065Z,102626.66
2023-04-16T22:17:12.860Z,102619.94
2023-04-16T22:19:39.396Z,102614.69
2023-04-16T22:22:05.790Z,102625.66
2023-04-16T22:24:32.216Z,102617.91
2023-04-16T22:26:58.654Z,102625.31
2023-04-16T22:29:25.087Z,102616.56
2023-04-16T22:31:51.478Z,102620.94
2023-04-16T22:34:17.959Z,102621.44
2023-04-16T22:36:44.422Z,102621.94
2023-04-16T22:39:11.036Z,102619.09
2023-04-16T22:41:37.748Z,102618.25
2023-04-16T22:44:04.446Z,102619.44
2023-04-16T22:46:31.004Z,102619.44
2023-04-16T22:48:57.923Z,102620.25
2023-04-16T22:51:24.520Z,102622.78
2023-04-16T22:53:51.829Z,102621.28
2023-04-16T22:56:19.576Z,102628.84
2023-04-16T22:58:46.385Z,102620.59
2023-04-16T23:01:12.828Z,102617.91
2023-04-16T23:03:39.350Z,102619.78
2023-04-16T23:06:06.585Z,102622.28
2023-04-16T23:08:32.970Z,102625.97
2023-04-16T23:10:59.411Z,102627.66
2023-04-16T23:13:25.869Z,102634.19
2023-04-16T23:15:52.284Z,102630.31
2023-04-16T23:18:18.742Z,102628.47
2023-04-16T23:20:45.190Z,102625.94
2023-04-16T23:23:11.680Z,102627.63
2023-04-16T23:25:40.978Z,102628.28
2023-04-16T23:28:07.353Z,102626.63
2023-04-16T23:30:33.837Z,102635.53
2023-04-16T23:33:00.295Z,102628.28
2023-04-16T23:35:26.831Z,102638.06
2023-04-16T23:37:53.207Z,102633.50
2023-04-16T23:40:19.653Z,102632.16
2023-04-16T23:42:46.102Z,102634.03
2023-04-16T23:45:12.530Z,102629.97
2023-04-16T23:47:39.015Z,102636.22
2023-04-16T23:50:06.142Z,102638.06
2023-04-16T23:52:32.538Z,102624.25
2023-04-16T23:54:58.966Z,102639.41
2023-04-16T23:57:25.484Z,102635.03
2023-04-16T23:59:51.911Z,102637.03
